Time;durP1;ratioP1;P1;durP2;ratioP2;P2;SDS_P1;SDS_P2;PMS_P1;PMS_P2;Temp;Humidity;BMP_temperature;BMP_pressure;BME280_temperature;BME280_humidity;BME280_pressure;Samples;Min_cycle;Max_cycle;Signal;HPM_P1;HPM_P2
2021/03/26 00:01:32;;;;;;;51.88;27.83;;;9.10;99.90;;;;;;4918429;29;20205;-69
2021/03/26 00:04:01;;;;;;;51.45;30.45;;;9.00;99.90;;;;;;4935545;29;21032;-67
2021/03/26 00:06:35;;;;;;;44.67;29.25;;;9.30;99.90;;;;;;4935194;29;20210;-68
2021/03/26 00:09:04;;;;;;;53.35;29.10;;;10.10;99.90;;;;;;4935151;29;20205;-65
2021/03/26 00:11:33;;;;;;;42.53;28.42;;;10.60;99.90;;;;;;4918290;28;20561;-67
2021/03/26 00:14:01;;;;;;;42.73;27.30;;;10.70;99.90;;;;;;4936154;29;20613;-66
2021/03/26 00:16:28;;;;;;;44.40;26.27;;;10.50;99.90;;;;;;4917746;29;20463;-67
2021/03/26 00:18:56;;;;;;;42.70;25.75;;;10.30;99.90;;;;;;4935326;29;20952;-67
2021/03/26 00:21:24;;;;;;;39.60;25.37;;;10.40;99.90;;;;;;4935291;29;20243;-68
2021/03/26 00:23:52;;;;;;;44.30;27.07;;;10.70;99.90;;;;;;4935009;29;20395;-68
2021/03/26 00:26:20;;;;;;;39.83;24.67;;;11.10;99.90;;;;;;4934740;29;20418;-69
2021/03/26 00:28:48;;;;;;;45.43;24.80;;;11.10;99.90;;;;;;4935061;29;20814;-67
2021/03/26 00:31:16;;;;;;;38.13;21.60;;;11.40;99.90;;;;;;4935286;29;20396;-66
2021/03/26 00:33:43;;;;;;;45.43;27.73;;;11.30;99.90;;;;;;4934837;29;20387;-68
2021/03/26 00:36:12;;;;;;;44.77;28.87;;;11.20;99.90;;;;;;4934510;29;20808;-65
2021/03/26 00:38:39;;;;;;;45.10;26.27;;;11.00;99.90;;;;;;4935154;29;20515;-67
2021/03/26 00:41:07;;;;;;;36.10;26.07;;;10.90;99.90;;;;;;4935003;29;20958;-66
2021/03/26 00:43:34;;;;;;;40.27;24.77;;;10.70;99.90;;;;;;4935132;29;20423;-66
2021/03/26 00:46:03;;;;;;;36.23;23.57;;;11.10;99.90;;;;;;4934854;29;20425;-69
2021/03/26 00:48:30;;;;;;;40.00;25.60;;;11.50;99.90;;;;;;4934565;29;20395;-69
2021/03/26 00:51:01;;;;;;;39.07;28.93;;;11.80;99.90;;;;;;4934954;29;20501;-70
2021/03/26 00:53:36;;;;;;;44.30;27.70;;;11.60;99.90;;;;;;4934628;29;20737;-66
2021/03/26 00:56:06;;;;;;;46.37;27.97;;;11.10;99.90;;;;;;4933701;29;20582;-67
2021/03/26 00:58:34;;;;;;;42.63;25.90;;;10.80;99.90;;;;;;4933852;29;20447;-70
2021/03/26 01:01:02;;;;;;;46.97;28.20;;;10.80;99.90;;;;;;4918032;29;20757;-64
2021/03/26 01:03:31;;;;;;;38.17;26.30;;;10.60;99.90;;;;;;4935387;29;20395;-70
2021/03/26 01:06:03;;;;;;;44.30;26.27;;;10.40;99.90;;;;;;4918700;29;20535;-66
2021/03/26 01:08:31;;;;;;;40.57;26.77;;;10.40;99.90;;;;;;4935777;29;20193;-67
2021/03/26 01:11:07;;;;;;;48.88;30.38;;;10.10;99.90;;;;;;4918920;29;20444;-67
2021/03/26 01:13:34;;;;;;;41.55;28.17;;;9.80;99.90;;;;;;4948473;29;20291;-68
2021/03/26 01:16:04;;;;;;;51.50;31.95;;;9.30;99.90;;;;;;4951990;28;20701;-67
2021/03/26 01:18:37;;;;;;;53.33;29.98;;;8.80;99.90;;;;;;4967852;28;20628;-67
2021/03/26 01:21:08;;;;;;;65.68;30.15;;;8.90;99.90;;;;;;4952004;29;20732;-67
2021/03/26 01:23:35;;;;;;;49.30;31.15;;;9.30;99.90;;;;;;4952018;29;20200;-66
2021/03/26 01:26:03;;;;;;;45.05;28.58;;;9.50;99.90;;;;;;4951445;28;20693;-70
2021/03/26 01:28:44;;;;;;;57.63;31.60;;;9.60;99.90;;;;;;4951507;29;20196;-66
2021/03/26 01:31:35;;;;;;;43.75;25.90;;;9.80;99.90;;;;;;4947894;29;20255;-71
2021/03/26 01:34:05;;;;;;;60.00;29.13;;;10.10;99.90;;;;;;4951697;28;20195;-67
2021/03/26 01:36:37;;;;;;;53.70;32.42;;;10.20;99.90;;;;;;4950988;28;20314;-68
2021/03/26 01:39:09;;;;;;;54.92;32.35;;;10.20;99.90;;;;;;4952901;28;20196;-70
2021/03/26 01:41:44;;;;;;;51.92;31.30;;;10.20;99.90;;;;;;4967697;28;20566;-67
2021/03/26 01:44:16;;;;;;;50.65;31.73;;;10.40;99.90;;;;;;4951549;29;20239;-67
2021/03/26 01:46:46;;;;;;;48.05;30.42;;;10.60;99.90;;;;;;4966086;28;20216;-70
2021/03/26 01:49:16;;;;;;;49.90;31.00;;;10.90;99.90;;;;;;4951644;28;20200;-68
2021/03/26 01:51:48;;;;;;;50.40;29.57;;;10.80;99.90;;;;;;4951244;29;20192;-67
2021/03/26 01:54:22;;;;;;;50.40;28.50;;;11.00;99.90;;;;;;4953086;28;20391;-65
2021/03/26 01:56:52;;;;;;;58.83;31.13;;;11.30;99.90;;;;;;4952530;28;20475;-66
2021/03/26 01:59:35;;;;;;;40.27;27.97;;;11.30;99.90;;;;;;4951173;29;20414;-68
2021/03/26 02:02:08;;;;;;;46.77;28.53;;;11.60;99.90;;;;;;4952557;29;20431;-67
2021/03/26 02:04:59;;;;;;;48.07;28.67;;;11.60;99.90;;;;;;4952503;28;20517;-69
2021/03/26 02:07:39;;;;;;;51.00;28.90;;;11.40;99.90;;;;;;4967021;28;20964;-68
2021/03/26 02:10:11;;;;;;;49.40;30.57;;;11.30;99.90;;;;;;4951308;29;20422;-70
2021/03/26 02:12:39;;;;;;;45.17;27.70;;;11.10;99.90;;;;;;4967253;28;20668;-68
2021/03/26 02:15:17;;;;;;;48.77;32.20;;;11.10;99.90;;;;;;4951272;28;20437;-68
2021/03/26 02:17:47;;;;;;;48.60;28.87;;;10.80;99.90;;;;;;4952139;28;20471;-70
2021/03/26 02:20:36;;;;;;;48.17;28.83;;;11.00;99.90;;;;;;4951242;29;20464;-68
2021/03/26 02:23:12;;;;;;;45.53;27.97;;;11.00;99.90;;;;;;4967618;28;20474;-68
2021/03/26 02:25:52;;;;;;;51.60;30.40;;;11.10;99.90;;;;;;4951072;28;20444;-68
2021/03/26 02:28:20;;;;;;;54.23;29.90;;;11.10;99.90;;;;;;4967392;28;20461;-69
2021/03/26 02:31:02;;;;;;;49.67;29.30;;;10.90;99.90;;;;;;4951113;28;20494;-65
2021/03/26 02:33:32;;;;;;;39.60;25.97;;;11.00;99.90;;;;;;4967382;28;20526;-70
2021/03/26 02:36:36;;;;;;;45.10;28.67;;;11.20;99.90;;;;;;4952184;28;20454;-70
2021/03/26 02:39:13;;;;;;;48.33;27.67;;;11.30;99.90;;;;;;4952457;29;20490;-69
2021/03/26 02:41:47;;;;;;;46.63;29.73;;;11.10;99.90;;;;;;4967852;28;20923;-68
2021/03/26 02:44:47;;;;;;;45.33;29.43;;;11.00;99.90;;;;;;4952116;28;20454;-69
2021/03/26 02:47:31;;;;;;;46.10;29.50;;;10.60;99.90;;;;;;4950586;28;20518;-69
2021/03/26 02:50:26;;;;;;;42.45;29.63;;;10.50;99.90;;;;;;4952141;28;20843;-66
2021/03/26 02:53:02;;;;;;;44.73;29.33;;;10.40;99.90;;;;;;4951401;29;20255;-68
2021/03/26 02:55:39;;;;;;;45.78;30.25;;;10.30;99.90;;;;;;4951064;28;20805;-68
2021/03/26 02:58:14;;;;;;;41.13;27.00;;;10.50;99.90;;;;;;4951780;28;20223;-68
2021/03/26 03:00:49;;;;;;;52.80;30.60;;;10.30;99.90;;;;;;4971067;28;20977;-68
2021/03/26 03:03:25;;;;;;;49.80;30.17;;;10.30;99.90;;;;;;4955033;28;20923;-67
2021/03/26 03:05:58;;;;;;;50.07;31.23;;;10.30;99.90;;;;;;4955517;28;20428;-68
2021/03/26 03:08:50;;;;;;;41.67;26.88;;;10.50;99.90;;;;;;4955659;29;20449;-67
2021/03/26 03:11:26;;;;;;;46.97;29.30;;;10.50;99.90;;;;;;4970670;28;20274;-69
2021/03/26 03:14:14;;;;;;;56.23;31.37;;;10.60;99.90;;;;;;4955699;28;20206;-68
2021/03/26 03:16:47;;;;;;;48.67;29.83;;;10.40;99.90;;;;;;4955101;28;20501;-69
2021/03/26 03:19:33;;;;;;;54.87;28.97;;;10.60;99.90;;;;;;4954586;29;20410;-67
2021/03/26 03:22:06;;;;;;;43.65;27.45;;;10.80;99.90;;;;;;4955756;29;20406;-68
2021/03/26 03:24:37;;;;;;;48.37;29.97;;;10.30;99.90;;;;;;4955911;28;20199;-69
2021/03/26 03:27:32;;;;;;;48.85;30.90;;;9.90;99.90;;;;;;4970395;28;20423;-68
2021/03/26 03:30:18;;;;;;;56.17;30.35;;;10.30;99.90;;;;;;4954715;29;20200;-68
2021/03/26 03:32:57;;;;;;;56.87;30.97;;;10.60;99.90;;;;;;4956152;28;20188;-69
2021/03/26 03:35:38;;;;;;;53.33;29.77;;;10.80;99.90;;;;;;4954072;28;20451;-66
2021/03/26 03:38:30;;;;;;;50.92;30.15;;;10.90;99.90;;;;;;4970181;28;20571;-68
2021/03/26 03:41:03;;;;;;;43.95;26.17;;;10.70;99.90;;;;;;4954018;29;20192;-68
2021/03/26 03:43:36;;;;;;;47.30;31.60;;;10.50;99.90;;;;;;4954175;28;20196;-69
2021/03/26 03:46:11;;;;;;;42.97;27.80;;;10.20;99.90;;;;;;4955612;28;20274;-69
2021/03/26 03:49:25;;;;;;;55.67;28.60;;;9.90;99.90;;;;;;4950811;29;20254;-70
2021/03/26 03:51:59;;;;;;;56.03;30.55;;;9.60;99.90;;;;;;4954225;29;20226;-67
2021/03/26 03:54:31;;;;;;;43.08;28.23;;;9.30;99.90;;;;;;4956041;28;20192;-68
2021/03/26 03:57:03;;;;;;;52.75;31.05;;;9.60;99.90;;;;;;4953728;28;20227;-66
2021/03/26 03:59:37;;;;;;;45.10;29.55;;;9.80;99.90;;;;;;4954120;29;20279;-69
2021/03/26 04:02:22;;;;;;;46.92;30.60;;;9.80;99.90;;;;;;4955801;28;20180;-68
2021/03/26 04:04:54;;;;;;;43.10;28.85;;;9.70;99.90;;;;;;4956440;29;20600;-68
2021/03/26 04:07:26;;;;;;;55.28;32.90;;;9.30;99.90;;;;;;4954370;28;20204;-70
2021/03/26 04:09:59;;;;;;;52.80;33.47;;;9.30;99.90;;;;;;4969602;28;20196;-65
2021/03/26 04:12:33;;;;;;;54.85;31.98;;;9.50;99.90;;;;;;4947069;28;20223;-65
2021/03/26 04:15:15;;;;;;;45.35;30.70;;;9.60;99.90;;;;;;4933906;29;20211;-68
2021/03/26 04:17:54;;;;;;;53.53;29.20;;;9.40;99.90;;;;;;4935265;29;20304;-66
2021/03/26 04:20:41;;;;;;;45.67;28.83;;;9.10;99.90;;;;;;4918514;29;20275;-68
2021/03/26 04:23:13;;;;;;;52.45;28.92;;;9.20;99.90;;;;;;4918035;29;20231;-70
2021/03/26 04:26:05;;;;;;;41.33;24.35;;;9.30;99.90;;;;;;4917874;29;20248;-67
2021/03/26 04:28:59;;;;;;;46.92;29.95;;;9.20;99.90;;;;;;4935892;29;20253;-69
2021/03/26 04:31:52;;;;;;;40.53;26.92;;;9.00;99.90;;;;;;4934932;29;20291;-66
2021/03/26 04:34:20;;;;;;;45.75;29.70;;;8.90;99.90;;;;;;4918202;29;20197;-69
2021/03/26 04:36:55;;;;;;;46.67;28.60;;;9.30;99.90;;;;;;4935335;29;20585;-69
2021/03/26 04:39:50;;;;;;;46.80;30.45;;;9.30;99.90;;;;;;4935956;29;20219;-66
2021/03/26 04:42:26;;;;;;;58.75;30.33;;;9.70;99.90;;;;;;4918178;29;20196;-69
2021/03/26 04:45:02;;;;;;;47.72;28.00;;;9.80;99.90;;;;;;4917603;29;20666;-68
2021/03/26 04:47:49;;;;;;;50.92;29.63;;;9.70;99.90;;;;;;4918127;29;20300;-67
2021/03/26 04:50:30;;;;;;;56.90;30.92;;;9.90;99.90;;;;;;4917725;29;20197;-68
2021/03/26 04:53:04;;;;;;;45.55;25.85;;;10.20;99.90;;;;;;4917774;29;20197;-68
2021/03/26 04:55:36;;;;;;;45.53;28.17;;;10.40;99.90;;;;;;4917534;29;20670;-67
2021/03/26 04:58:26;;;;;;;41.13;28.67;;;10.50;99.90;;;;;;4935103;29;20522;-69
2021/03/26 05:01:15;;;;;;;49.77;28.20;;;10.60;99.90;;;;;;4934768;29;20424;-66
2021/03/26 05:03:59;;;;;;;42.13;28.17;;;10.50;99.90;;;;;;4917328;29;20423;-67
2021/03/26 05:06:30;;;;;;;50.17;26.73;;;10.60;99.90;;;;;;4934313;29;20560;-68
2021/03/26 05:09:09;;;;;;;44.10;27.87;;;10.70;99.90;;;;;;4933199;29;20527;-69
2021/03/26 05:12:03;;;;;;;49.67;30.35;;;10.40;99.90;;;;;;4932462;29;20465;-68
2021/03/26 05:14:35;;;;;;;40.97;25.45;;;10.30;99.90;;;;;;4932826;29;20221;-68
2021/03/26 05:17:09;;;;;;;57.63;31.80;;;10.30;99.90;;;;;;4932528;29;20213;-69
2021/03/26 05:19:46;;;;;;;55.70;30.83;;;11.40;99.90;;;;;;4934349;29;20540;-68
2021/03/26 05:22:32;;;;;;;50.33;29.33;;;12.30;99.90;;;;;;4934220;29;20454;-68
2021/03/26 05:25:36;;;;;;;35.90;26.23;;;13.10;99.90;;;;;;4912070;29;20473;-68
2021/03/26 05:28:40;;;;;;;47.53;27.57;;;13.00;99.90;;;;;;4915454;29;20451;-69
2021/03/26 05:31:31;;;;;;;40.80;25.43;;;13.70;99.90;;;;;;4932849;29;20817;-68
2021/03/26 05:34:10;;;;;;;50.07;30.07;;;13.80;99.90;;;;;;4916753;29;20945;-68
2021/03/26 05:36:45;;;;;;;43.60;31.80;;;14.10;99.90;;;;;;4916619;29;20553;-67
2021/03/26 05:39:34;;;;;;;42.63;28.37;;;13.70;99.90;;;;;;4934484;29;20428;-68
2021/03/26 05:42:47;;;;;;;36.73;27.53;;;13.80;99.90;;;;;;4893574;29;20408;-69
2021/03/26 05:45:52;;;;;;;50.20;29.63;;;13.40;99.90;;;;;;4931671;29;20424;-70
2021/03/26 05:48:58;;;;;;;42.60;28.53;;;13.40;99.90;;;;;;4921090;29;20415;-66
2021/03/26 05:51:45;;;;;;;43.60;29.10;;;13.50;99.90;;;;;;4933800;29;20403;-69
2021/03/26 05:54:23;;;;;;;50.83;30.13;;;13.40;99.90;;;;;;4916528;29;20464;-69
2021/03/26 05:57:21;;;;;;;45.60;30.43;;;13.40;99.90;;;;;;4916196;29;20458;-67
2021/03/26 06:00:29;;;;;;;48.10;30.40;;;13.20;99.90;;;;;;4917055;29;20996;-68
2021/03/26 06:03:44;;;;;;;45.10;28.07;;;12.70;99.90;;;;;;4933366;29;20511;-69
2021/03/26 06:07:09;;;;;;;42.73;27.50;;;12.20;99.90;;;;;;4912566;29;21077;-66
2021/03/26 06:10:29;;;;;;;49.47;28.70;;;12.40;99.90;;;;;;4933915;29;20387;-67
2021/03/26 06:13:36;;;;;;;46.20;27.60;;;11.80;99.90;;;;;;4933749;29;20443;-68
2021/03/26 06:16:39;;;;;;;54.30;30.90;;;11.50;99.90;;;;;;4933333;29;20486;-66
2021/03/26 06:19:56;;;;;;;44.57;26.80;;;11.70;99.90;;;;;;4933537;29;20394;-67
2021/03/26 06:23:18;;;;;;;56.17;30.30;;;12.60;99.90;;;;;;4933487;29;20452;-65
2021/03/26 06:26:19;;;;;;;54.63;30.33;;;12.40;99.90;;;;;;4915548;29;20878;-66
2021/03/26 06:28:51;;;;;;;46.13;27.43;;;12.00;99.90;;;;;;4916492;29;20950;-67
2021/03/26 06:32:10;;;;;;;50.93;27.07;;;12.30;99.90;;;;;;4916270;29;20785;-68
2021/03/26 06:35:34;;;;;;;41.57;26.50;;;11.90;99.90;;;;;;4939783;29;20433;-65
2021/03/26 06:38:38;;;;;;;53.27;27.87;;;11.40;99.90;;;;;;4929897;29;20570;-66
2021/03/26 06:41:14;;;;;;;48.10;28.90;;;11.30;99.90;;;;;;4939411;29;20889;-67
2021/03/26 06:44:18;;;;;;;50.23;29.50;;;11.20;99.90;;;;;;4939569;29;20756;-69
2021/03/26 06:46:53;;;;;;;58.67;30.63;;;11.10;99.90;;;;;;4939185;29;20422;-70
2021/03/26 06:49:35;;;;;;;51.83;31.63;;;10.80;99.90;;;;;;4939676;29;20424;-70
2021/03/26 06:52:28;;;;;;;44.90;29.53;;;10.60;99.90;;;;;;4940205;29;20446;-70
2021/03/26 06:55:23;;;;;;;58.20;31.07;;;10.60;99.90;;;;;;4939676;29;20398;-69
2021/03/26 06:58:26;;;;;;;48.37;31.87;;;10.30;99.90;;;;;;4940228;29;20486;-69
2021/03/26 07:01:06;;;;;;;57.78;33.83;;;10.00;99.90;;;;;;4940798;29;20536;-69
2021/03/26 07:03:48;;;;;;;58.15;31.83;;;10.10;99.90;;;;;;4940107;29;20268;-70
2021/03/26 07:06:52;;;;;;;53.15;33.35;;;10.30;99.90;;;;;;4939330;29;20213;-70
2021/03/26 07:10:00;;;;;;;48.90;30.10;;;10.60;99.90;;;;;;4939610;29;20184;-70
2021/03/26 07:12:44;;;;;;;45.80;27.87;;;11.00;99.90;;;;;;4940153;29;20517;-69
2021/03/26 07:15:16;;;;;;;40.73;28.43;;;11.60;99.90;;;;;;4939354;29;20431;-69
2021/03/26 07:18:10;;;;;;;44.60;27.93;;;11.90;99.90;;;;;;4939329;29;20499;-69
2021/03/26 07:20:57;;;;;;;54.30;29.40;;;12.30;99.90;;;;;;4939558;29;20511;-70
2021/03/26 07:23:52;;;;;;;50.00;29.77;;;12.50;99.90;;;;;;4939653;29;20940;-69
2021/03/26 07:26:29;;;;;;;47.20;26.80;;;12.80;99.90;;;;;;4939369;29;20451;-69
2021/03/26 07:29:28;;;;;;;45.10;28.57;;;12.90;99.90;;;;;;4939806;29;20490;-69
2021/03/26 07:32:20;;;;;;;46.30;28.20;;;12.80;99.90;;;;;;4939721;29;20803;-71
2021/03/26 07:35:05;;;;;;;48.63;31.27;;;12.80;99.90;;;;;;4939542;29;20433;-69
2021/03/26 07:37:38;;;;;;;53.27;29.20;;;12.90;99.90;;;;;;4939153;29;20533;-69
2021/03/26 07:40:34;;;;;;;42.90;28.60;;;12.90;99.90;;;;;;4939465;29;20411;-70
2021/03/26 07:43:19;;;;;;;49.70;30.40;;;12.70;99.90;;;;;;4939108;29;20387;-69
2021/03/26 07:46:05;;;;;;;41.63;27.00;;;12.60;99.90;;;;;;4935879;29;20436;-70
2021/03/26 07:48:44;;;;;;;43.30;30.13;;;12.60;99.90;;;;;;4936034;29;20809;-70
2021/03/26 07:51:21;;;;;;;49.20;31.03;;;12.60;99.90;;;;;;4936139;29;20399;-69
2021/03/26 07:54:24;;;;;;;50.27;28.50;;;12.60;99.90;;;;;;4935978;29;20429;-71
2021/03/26 07:57:10;;;;;;;47.93;27.00;;;12.70;99.90;;;;;;4935341;29;20538;-70
2021/03/26 08:00:07;;;;;;;37.10;25.70;;;12.80;99.90;;;;;;4936032;29;20430;-70
2021/03/26 08:02:48;;;;;;;48.17;28.93;;;12.80;99.90;;;;;;4936160;29;20391;-69
2021/03/26 08:05:23;;;;;;;50.90;30.70;;;12.80;99.90;;;;;;4936132;29;21133;-69
2021/03/26 08:08:34;;;;;;;45.83;27.30;;;12.90;99.90;;;;;;4935613;29;20506;-69
2021/03/26 08:11:11;;;;;;;39.80;27.53;;;12.90;99.90;;;;;;4929966;29;20439;-70
2021/03/26 08:14:01;;;;;;;43.20;27.93;;;13.10;99.90;;;;;;4936240;29;20833;-70
2021/03/26 08:17:00;;;;;;;56.87;35.63;;;13.10;99.90;;;;;;4935081;29;20503;-70
2021/03/26 08:19:35;;;;;;;57.30;30.80;;;13.10;99.90;;;;;;4935636;29;20416;-70
2021/03/26 08:22:15;;;;;;;42.50;28.57;;;13.40;99.90;;;;;;4936066;29;20839;-69
2021/03/26 08:25:15;;;;;;;41.60;26.37;;;13.80;99.90;;;;;;4935565;29;20508;-70
2021/03/26 08:27:47;;;;;;;45.90;27.07;;;14.10;99.90;;;;;;4934522;29;20993;-70
2021/03/26 08:30:29;;;;;;;46.90;29.13;;;13.90;99.90;;;;;;4935925;29;20447;-70
2021/03/26 08:33:17;;;;;;;43.63;27.90;;;13.80;99.90;;;;;;4935343;29;20442;-74
2021/03/26 08:36:06;;;;;;;38.00;25.57;;;13.80;99.90;;;;;;4934902;29;20489;-70
2021/03/26 08:38:45;;;;;;;45.53;27.90;;;13.70;99.90;;;;;;4934895;29;20443;-69
2021/03/26 08:41:18;;;;;;;53.70;33.00;;;13.30;99.90;;;;;;4935509;29;20427;-71
2021/03/26 08:43:51;;;;;;;48.63;31.23;;;13.10;99.90;;;;;;4934533;29;20443;-70
2021/03/26 08:46:22;;;;;;;51.87;29.00;;;13.10;99.90;;;;;;4917151;29;20455;-69
2021/03/26 08:49:00;;;;;;;47.70;29.30;;;13.10;99.90;;;;;;4934698;29;20408;-69
2021/03/26 08:52:06;;;;;;;51.30;33.87;;;12.80;99.90;;;;;;4934969;29;20916;-72
2021/03/26 08:54:53;;;;;;;47.67;28.27;;;12.80;99.90;;;;;;4916015;29;20425;-69
2021/03/26 08:57:27;;;;;;;46.03;29.20;;;13.00;99.90;;;;;;4934629;29;20474;-71
2021/03/26 09:00:22;;;;;;;49.37;26.87;;;13.20;99.90;;;;;;4935037;29;20422;-69
2021/03/26 09:03:27;;;;;;;55.63;29.07;;;13.50;99.90;;;;;;4933157;29;20502;-71
2021/03/26 09:06:30;;;;;;;44.90;29.33;;;13.50;99.90;;;;;;4934702;29;20732;-70
2021/03/26 09:09:14;;;;;;;46.77;29.27;;;13.50;99.90;;;;;;4915791;29;20407;-70
2021/03/26 09:12:05;;;;;;;49.53;29.10;;;13.60;99.90;;;;;;4916023;28;20434;-70
2021/03/26 09:14:52;;;;;;;41.47;26.70;;;13.40;99.90;;;;;;4933054;29;20767;-71
2021/03/26 09:17:24;;;;;;;49.50;27.90;;;13.50;99.90;;;;;;4932893;29;20462;-70
2021/03/26 09:19:58;;;;;;;44.07;26.80;;;13.60;99.90;;;;;;4931608;29;20451;-69
2021/03/26 09:22:56;;;;;;;47.63;26.20;;;13.30;99.90;;;;;;4925306;29;20459;-69
2021/03/26 09:25:40;;;;;;;43.07;22.73;;;13.40;99.90;;;;;;4926581;29;20430;-71
2021/03/26 09:28:12;;;;;;;49.87;29.83;;;13.90;99.90;;;;;;4933690;29;20436;-70
2021/03/26 09:30:45;;;;;;;44.33;25.10;;;13.80;99.90;;;;;;4916846;29;20415;-69
2021/03/26 09:33:15;;;;;;;44.43;27.20;;;14.40;99.90;;;;;;4934058;29;20408;-68
2021/03/26 09:35:47;;;;;;;41.40;27.73;;;14.80;99.90;;;;;;4933424;29;20400;-68
2021/03/26 09:38:30;;;;;;;37.27;23.07;;;15.00;99.90;;;;;;4933877;29;20610;-69
2021/03/26 09:41:07;;;;;;;35.53;26.00;;;15.40;99.90;;;;;;4933698;29;20527;-70
2021/03/26 09:43:45;;;;;;;43.50;25.20;;;15.60;99.90;;;;;;4934047;29;20494;-69
2021/03/26 09:46:17;;;;;;;43.50;29.37;;;15.70;99.90;;;;;;4933205;29;20853;-69
2021/03/26 09:48:58;;;;;;;38.00;26.97;;;15.30;99.90;;;;;;4933919;29;20403;-69
2021/03/26 09:51:37;;;;;;;38.67;27.70;;;15.10;99.90;;;;;;4933475;29;20403;-71
2021/03/26 09:54:14;;;;;;;45.97;26.07;;;14.90;99.90;;;;;;4934153;29;20434;-70
2021/03/26 09:56:48;;;;;;;45.03;27.57;;;13.90;99.90;;;;;;4932692;29;20525;-70
2021/03/26 09:59:25;;;;;;;45.40;26.70;;;13.60;99.90;;;;;;4934112;29;20432;-69
2021/03/26 10:02:02;;;;;;;40.50;26.43;;;13.80;99.90;;;;;;4934872;29;20413;-72
2021/03/26 10:04:36;;;;;;;38.20;24.70;;;14.00;99.90;;;;;;4935918;29;20772;-70
2021/03/26 10:07:18;;;;;;;39.13;24.77;;;14.30;96.80;;;;;;4917794;29;21086;-70
2021/03/26 10:09:48;;;;;;;41.03;25.07;;;14.40;99.90;;;;;;4935678;29;20426;-69
2021/03/26 10:12:19;;;;;;;40.23;26.60;;;14.00;99.90;;;;;;4941885;28;20419;-68
2021/03/26 10:14:57;;;;;;;51.00;28.73;;;14.40;99.90;;;;;;4934667;29;20788;-72
2021/03/26 10:17:51;;;;;;;47.10;25.77;;;14.20;99.90;;;;;;4933560;29;20638;-71
2021/03/26 10:20:24;;;;;;;46.43;26.20;;;14.10;80.30;;;;;;4933754;29;20428;-71
2021/03/26 10:23:13;;;;;;;51.33;29.90;;;14.10;86.00;;;;;;4934480;29;20486;-70
2021/03/26 10:25:47;;;;;;;47.27;27.70;;;14.30;94.80;;;;;;4933465;29;20930;-71
2021/03/26 10:28:25;;;;;;;38.60;27.47;;;14.40;56.70;;;;;;4934285;29;20426;-69
2021/03/26 10:31:00;;;;;;;36.37;23.03;;;14.70;79.40;;;;;;4932941;29;20428;-71
2021/03/26 10:33:32;;;;;;;40.57;26.00;;;14.90;59.40;;;;;;4934028;29;20428;-73
2021/03/26 10:36:04;;;;;;;38.70;26.00;;;14.90;61.70;;;;;;4933679;29;20430;-69
2021/03/26 10:38:47;;;;;;;41.20;26.20;;;15.10;99.90;;;;;;4933216;29;20443;-71
2021/03/26 10:41:30;;;;;;;39.43;23.23;;;15.60;99.90;;;;;;4932031;29;20411;-68
2021/03/26 10:44:09;;;;;;;39.67;24.23;;;15.90;99.90;;;;;;4933403;29;20403;-69
2021/03/26 10:46:40;;;;;;;39.50;21.87;;;15.90;99.90;;;;;;4931926;29;20529;-69
2021/03/26 10:49:13;;;;;;;35.70;23.53;;;15.60;99.90;;;;;;4933260;29;20934;-69
2021/03/26 10:51:46;;;;;;;35.57;23.77;;;15.70;99.90;;;;;;4933061;29;20417;-68
2021/03/26 10:54:24;;;;;;;32.87;21.23;;;15.70;99.90;;;;;;4933496;29;20406;-69
2021/03/26 10:57:00;;;;;;;28.83;20.47;;;15.50;99.90;;;;;;4935712;29;20444;-73
2021/03/26 10:59:36;;;;;;;34.80;20.50;;;16.00;99.90;;;;;;4933803;29;20772;-72
2021/03/26 11:02:40;;;;;;;35.40;21.20;;;16.10;99.90;;;;;;4934186;29;20407;-71
2021/03/26 11:05:24;;;;;;;33.87;19.63;;;16.10;99.90;;;;;;4874824;29;20457;-69
2021/03/26 11:08:13;;;;;;;31.03;18.87;;;16.20;99.90;;;;;;4929303;29;20468;-69
2021/03/26 11:10:44;;;;;;;28.73;20.70;;;16.50;99.90;;;;;;4933310;29;20953;-69
2021/03/26 11:13:22;;;;;;;30.10;20.83;;;16.70;99.90;;;;;;4933465;29;20426;-71
2021/03/26 11:15:54;;;;;;;32.83;19.23;;;16.80;99.90;;;;;;4932553;29;20403;-70
2021/03/26 11:18:27;;;;;;;30.00;19.97;;;17.10;99.90;;;;;;4933071;29;20579;-69
2021/03/26 11:21:00;;;;;;;30.73;20.40;;;17.20;99.90;;;;;;4936651;29;20460;-70
2021/03/26 11:23:31;;;;;;;26.60;17.90;;;17.30;99.90;;;;;;4936845;29;20435;-69
2021/03/26 11:26:11;;;;;;;36.37;23.27;;;17.50;99.90;;;;;;4936845;29;20977;-70
2021/03/26 11:28:45;;;;;;;33.83;21.27;;;17.80;99.90;;;;;;4937252;29;20433;-71
2021/03/26 11:31:23;;;;;;;31.47;18.87;;;17.90;99.90;;;;;;4937542;29;20492;-72
2021/03/26 11:34:06;;;;;;;28.30;18.87;;;18.00;99.90;;;;;;4937217;29;20446;-69
2021/03/26 11:37:00;;;;;;;30.57;21.00;;;18.30;99.90;;;;;;4922482;29;20434;-68
2021/03/26 11:39:38;;;;;;;34.00;21.10;;;18.30;99.90;;;;;;4936414;29;20460;-69
2021/03/26 11:42:47;;;;;;;27.33;18.70;;;18.40;99.90;;;;;;4936198;29;20472;-70
2021/03/26 11:45:28;;;;;;;26.77;17.27;;;18.30;99.90;;;;;;4936347;29;20445;-73
2021/03/26 11:48:03;;;;;;;26.60;18.20;;;18.50;99.90;;;;;;4927193;29;20464;-70
2021/03/26 11:50:34;;;;;;;27.33;19.47;;;18.70;99.90;;;;;;4935626;29;20410;-70
2021/03/26 11:53:16;;;;;;;35.00;22.67;;;18.80;99.90;;;;;;4935773;29;20387;-67
2021/03/26 11:55:58;;;;;;;39.67;28.00;;;18.90;99.90;;;;;;4935038;29;20963;-67
2021/03/26 11:58:32;;;;;;;37.60;20.93;;;18.90;99.90;;;;;;4935023;29;20476;-69
2021/03/26 12:01:03;;;;;;;34.20;21.00;;;19.10;99.90;;;;;;4935478;29;20499;-70
2021/03/26 12:03:38;;;;;;;29.07;16.87;;;18.70;99.90;;;;;;4935009;29;20443;-67
2021/03/26 12:06:15;;;;;;;31.83;20.60;;;18.60;99.90;;;;;;4935100;29;20603;-70
2021/03/26 12:09:05;;;;;;;27.80;18.03;;;19.00;99.90;;;;;;4933533;29;20415;-69
2021/03/26 12:11:40;;;;;;;26.53;18.17;;;19.20;99.90;;;;;;4935291;29;20392;-69
2021/03/26 12:14:15;;;;;;;36.07;20.00;;;19.10;99.90;;;;;;4935224;29;20487;-66
2021/03/26 12:16:54;;;;;;;33.17;21.10;;;19.10;99.90;;;;;;4933530;29;20486;-66
2021/03/26 12:19:24;;;;;;;28.87;19.60;;;19.10;99.90;;;;;;4930208;29;20492;-65
2021/03/26 12:21:57;;;;;;;33.13;19.83;;;19.30;99.90;;;;;;4934455;29;20510;-66
2021/03/26 12:24:32;;;;;;;27.30;19.40;;;19.50;99.90;;;;;;4934899;29;20414;-66
2021/03/26 12:27:10;;;;;;;29.53;21.50;;;19.60;99.90;;;;;;4934475;29;20451;-64
2021/03/26 12:29:50;;;;;;;32.27;19.73;;;19.10;99.90;;;;;;4934785;29;20428;-66
2021/03/26 12:32:31;;;;;;;27.47;16.33;;;18.90;99.90;;;;;;4917197;29;20444;-66
2021/03/26 12:35:14;;;;;;;30.17;17.20;;;18.60;99.90;;;;;;4934330;29;20407;-67
2021/03/26 12:37:53;;;;;;;29.65;19.10;;;18.30;99.90;;;;;;4933785;29;20449;-67
2021/03/26 12:40:47;;;;;;;34.93;21.10;;;18.20;99.90;;;;;;4934497;29;20188;-68
2021/03/26 12:43:19;;;;;;;30.23;20.23;;;18.10;99.90;;;;;;4934208;29;20403;-65
2021/03/26 12:45:57;;;;;;;25.10;18.60;;;18.10;99.90;;;;;;4934135;29;20452;-65
2021/03/26 12:48:34;;;;;;;31.23;20.77;;;18.20;99.90;;;;;;4926903;29;20601;-66
2021/03/26 12:51:11;;;;;;;32.40;21.60;;;18.20;99.90;;;;;;4934145;29;20435;-64
2021/03/26 12:53:44;;;;;;;27.17;19.40;;;18.20;99.90;;;;;;4933990;29;20432;-67
2021/03/26 12:56:18;;;;;;;39.00;23.43;;;18.30;99.90;;;;;;4943992;28;20432;-65
2021/03/26 12:59:06;;;;;;;31.57;21.30;;;18.00;99.90;;;;;;4953813;29;20984;-67
2021/03/26 13:01:40;;;;;;;33.53;19.67;;;17.80;99.90;;;;;;4936549;29;20414;-67
2021/03/26 13:04:19;;;;;;;27.40;17.53;;;17.80;99.90;;;;;;4955585;29;20884;-66
2021/03/26 13:06:49;;;;;;;41.53;22.17;;;18.00;99.90;;;;;;4955410;28;20422;-69
2021/03/26 13:09:25;;;;;;;33.80;21.03;;;18.10;99.90;;;;;;4955729;29;20435;-68
2021/03/26 13:11:59;;;;;;;33.17;20.03;;;17.80;99.90;;;;;;4936027;29;20554;-68
2021/03/26 13:14:31;;;;;;;33.60;22.50;;;17.60;99.90;;;;;;4949055;29;20938;-69
2021/03/26 13:17:00;;;;;;;30.03;20.70;;;17.70;99.90;;;;;;4952719;28;20537;-68
2021/03/26 13:19:33;;;;;;;28.90;19.87;;;17.90;99.90;;;;;;4949518;29;20457;-71
2021/03/26 13:22:13;;;;;;;31.67;19.87;;;18.00;99.90;;;;;;4948309;29;20682;-69
2021/03/26 13:24:47;;;;;;;26.60;17.50;;;17.80;99.90;;;;;;4954504;28;20474;-67
2021/03/26 13:27:38;;;;;;;30.03;19.33;;;17.90;99.90;;;;;;4954153;28;20944;-68
2021/03/26 13:30:24;;;;;;;30.73;18.60;;;17.80;99.90;;;;;;4954245;29;20424;-70
2021/03/26 13:33:16;;;;;;;34.53;20.43;;;17.90;99.90;;;;;;4953093;29;20465;-67
2021/03/26 13:35:50;;;;;;;32.37;23.30;;;18.30;99.90;;;;;;4953489;28;20405;-67
2021/03/26 13:38:59;;;;;;;36.83;22.97;;;18.30;99.90;;;;;;4952863;29;20480;-70